sensor_id;sensor_type;location;lat;lon;timestamp;pressure;altitude;pressure_sealevel;temperature;humidity
3260;BME280;68938;48.150;14.004;2023-06-10T00:00:10;97655.84;;;21.41;62.43
3260;BME280;68938;48.150;14.004;2023-06-10T00:02:37;97655.13;;;21.39;62.53
3260;BME280;68938;48.150;14.004;2023-06-10T00:05:04;97654.53;;;21.35;62.64
3260;BME280;68938;48.150;14.004;2023-06-10T00:07:31;97650.34;;;21.33;62.70
3260;BME280;68938;48.150;14.004;2023-06-10T00:09:59;97656.47;;;21.22;63.10
3260;BME280;68938;48.150;14.004;2023-06-10T00:12:26;97658.25;;;21.21;62.89
3260;BME280;68938;48.150;14.004;2023-06-10T00:14:53;97660.13;;;21.19;63.01
3260;BME280;68938;48.150;14.004;2023-06-10T00:17:20;97656.94;;;21.16;62.96
3260;BME280;68938;48.150;14.004;2023-06-10T00:19:47;97649.50;;;21.11;63.22
3260;BME280;68938;48.150;14.004;2023-06-10T00:22:14;97649.53;;;21.00;63.72
3260;BME280;68938;48.150;14.004;2023-06-10T00:24:41;97650.22;;;21.02;63.93
3260;BME280;68938;48.150;14.004;2023-06-10T00:27:08;97659.41;;;20.96;63.61
3260;BME280;68938;48.150;14.004;2023-06-10T00:29:35;97655.72;;;20.88;64.66
3260;BME280;68938;48.150;14.004;2023-06-10T00:32:02;97656.78;;;20.85;64.15
3260;BME280;68938;48.150;14.004;2023-06-10T00:34:29;97661.19;;;20.85;64.12
3260;BME280;68938;48.150;14.004;2023-06-10T00:36:56;97657.16;;;20.80;64.33
3260;BME280;68938;48.150;14.004;2023-06-10T00:39:24;97658.38;;;20.76;63.80
3260;BME280;68938;48.150;14.004;2023-06-10T00:41:51;97651.59;;;20.74;64.28
3260;BME280;68938;48.150;14.004;2023-06-10T00:44:18;97651.84;;;20.71;63.97
3260;BME280;68938;48.150;14.004;2023-06-10T00:46:45;97646.06;;;20.67;64.10
3260;BME280;68938;48.150;14.004;2023-06-10T00:49:12;97655.06;;;20.63;64.48
3260;BME280;68938;48.150;14.004;2023-06-10T00:51:39;97638.84;;;20.59;63.85
3260;BME280;68938;48.150;14.004;2023-06-10T00:54:07;97644.16;;;20.58;64.30
3260;BME280;68938;48.150;14.004;2023-06-10T00:56:34;97640.97;;;20.54;64.03
3260;BME280;68938;48.150;14.004;2023-06-10T00:59:02;97636.94;;;20.50;64.55
3260;BME280;68938;48.150;14.004;2023-06-10T01:01:29;97649.13;;;20.50;64.10
3260;BME280;68938;48.150;14.004;2023-06-10T01:03:56;97654.47;;;20.48;64.40
3260;BME280;68938;48.150;14.004;2023-06-10T01:12:43;97645.81;;;20.25;64.97
3260;BME280;68938;48.150;14.004;2023-06-10T01:15:13;97647.13;;;20.20;65.06
3260;BME280;68938;48.150;14.004;2023-06-10T01:18:12;97653.16;;;20.20;65.03
3260;BME280;68938;48.150;14.004;2023-06-10T01:20:40;97653.66;;;20.14;65.08
3260;BME280;68938;48.150;14.004;2023-06-10T01:23:08;97649.25;;;20.15;64.82
3260;BME280;68938;48.150;14.004;2023-06-10T01:25:45;97651.03;;;20.14;64.84
3260;BME280;68938;48.150;14.004;2023-06-10T01:31:13;97646.41;;;20.06;64.86
3260;BME280;68938;48.150;14.004;2023-06-10T01:33:54;97654.44;;;19.92;64.67
3260;BME280;68938;48.150;14.004;2023-06-10T01:36:23;97642.22;;;19.81;64.45
3260;BME280;68938;48.150;14.004;2023-06-10T01:38:52;97637.25;;;19.78;64.47
3260;BME280;68938;48.150;14.004;2023-06-10T01:41:20;97652.03;;;19.78;64.69
3260;BME280;68938;48.150;14.004;2023-06-10T01:43:48;97651.91;;;19.79;64.66
3260;BME280;68938;48.150;14.004;2023-06-10T01:46:15;97656.53;;;19.76;64.68
3260;BME280;68938;48.150;14.004;2023-06-10T01:48:43;97655.00;;;19.73;64.73
3260;BME280;68938;48.150;14.004;2023-06-10T01:51:09;97660.53;;;19.69;64.70
3260;BME280;68938;48.150;14.004;2023-06-10T01:53:36;97663.25;;;19.67;64.45
3260;BME280;68938;48.150;14.004;2023-06-10T01:56:03;97653.41;;;19.59;64.94
3260;BME280;68938;48.150;14.004;2023-06-10T01:58:31;97661.84;;;19.63;64.80
3260;BME280;68938;48.150;14.004;2023-06-10T02:00:58;97663.91;;;19.58;64.97
3260;BME280;68938;48.150;14.004;2023-06-10T02:03:25;97668.50;;;19.54;65.46
3260;BME280;68938;48.150;14.004;2023-06-10T02:05:52;97669.47;;;19.53;64.92
3260;BME280;68938;48.150;14.004;2023-06-10T02:08:19;97664.34;;;19.52;65.20
3260;BME280;68938;48.150;14.004;2023-06-10T02:10:46;97663.75;;;19.48;65.35
3260;BME280;68938;48.150;14.004;2023-06-10T02:13:13;97670.72;;;19.48;65.48
3260;BME280;68938;48.150;14.004;2023-06-10T02:15:40;97675.09;;;19.47;65.58
3260;BME280;68938;48.150;14.004;2023-06-10T02:18:06;97674.50;;;19.44;65.57
3260;BME280;68938;48.150;14.004;2023-06-10T02:20:34;97677.09;;;19.44;65.65
3260;BME280;68938;48.150;14.004;2023-06-10T02:23:00;97679.84;;;19.42;65.61
3260;BME280;68938;48.150;14.004;2023-06-10T02:25:27;97682.53;;;19.40;65.44
3260;BME280;68938;48.150;14.004;2023-06-10T02:27:54;97679.22;;;19.38;65.76
3260;BME280;68938;48.150;14.004;2023-06-10T02:30:21;97682.88;;;19.36;65.70
3260;BME280;68938;48.150;14.004;2023-06-10T02:32:48;97676.94;;;19.34;65.85
3260;BME280;68938;48.150;14.004;2023-06-10T02:35:16;97679.69;;;19.32;65.27
3260;BME280;68938;48.150;14.004;2023-06-10T02:37:43;97673.13;;;19.27;65.41
3260;BME280;68938;48.150;14.004;2023-06-10T02:40:11;97675.84;;;19.25;65.05
3260;BME280;68938;48.150;14.004;2023-06-10T02:42:38;97677.84;;;19.22;65.25
3260;BME280;68938;48.150;14.004;2023-06-10T02:45:06;97680.69;;;19.18;64.90
3260;BME280;68938;48.150;14.004;2023-06-10T02:47:34;97680.75;;;19.17;65.19
3260;BME280;68938;48.150;14.004;2023-06-10T02:50:01;97681.72;;;19.16;64.96
3260;BME280;68938;48.150;14.004;2023-06-10T02:52:28;97687.97;;;19.13;64.56
3260;BME280;68938;48.150;14.004;2023-06-10T02:54:55;97686.53;;;19.09;64.90
3260;BME280;68938;48.150;14.004;2023-06-10T02:57:22;97691.13;;;19.06;64.80
3260;BME280;68938;48.150;14.004;2023-06-10T02:59:49;97687.78;;;19.04;64.92
3260;BME280;68938;48.150;14.004;2023-06-10T03:02:15;97680.09;;;19.02;65.35
3260;BME280;68938;48.150;14.004;2023-06-10T03:04:42;97690.00;;;18.97;65.57
3260;BME280;68938;48.150;14.004;2023-06-10T03:07:09;97684.91;;;18.96;65.11
3260;BME280;68938;48.150;14.004;2023-06-10T03:09:37;97690.44;;;18.91;65.59
3260;BME280;68938;48.150;14.004;2023-06-10T03:12:04;97691.38;;;18.90;65.43
3260;BME280;68938;48.150;14.004;2023-06-10T03:14:32;97695.03;;;18.87;65.52
3260;BME280;68938;48.150;14.004;2023-06-10T03:16:58;97696.78;;;18.87;65.71
3260;BME280;68938;48.150;14.004;2023-06-10T03:19:25;97692.03;;;18.81;65.76
3260;BME280;68938;48.150;14.004;2023-06-10T03:22:08;97699.50;;;18.85;66.09
3260;BME280;68938;48.150;14.004;2023-06-10T03:24:42;97699.84;;;18.81;66.09
3260;BME280;68938;48.150;14.004;2023-06-10T03:27:10;97703.47;;;18.78;66.18
3260;BME280;68938;48.150;14.004;2023-06-10T03:29:37;97706.28;;;18.75;66.22
3260;BME280;68938;48.150;14.004;2023-06-10T03:32:05;97703.16;;;18.70;66.42
3260;BME280;68938;48.150;14.004;2023-06-10T03:34:32;97708.44;;;18.68;66.34
3260;BME280;68938;48.150;14.004;2023-06-10T03:36:59;97713.56;;;18.70;66.24
3260;BME280;68938;48.150;14.004;2023-06-10T03:39:26;97711.03;;;18.68;66.51
3260;BME280;68938;48.150;14.004;2023-06-10T03:41:53;97715.63;;;18.65;66.55
3260;BME280;68938;48.150;14.004;2023-06-10T03:44:20;97718.22;;;18.65;66.88
3260;BME280;68938;48.150;14.004;2023-06-10T03:46:47;97722.81;;;18.61;66.89
3260;BME280;68938;48.150;14.004;2023-06-10T03:49:14;97715.00;;;18.61;66.49
3260;BME280;68938;48.150;14.004;2023-06-10T03:51:41;97723.75;;;18.60;66.84
3260;BME280;68938;48.150;14.004;2023-06-10T03:54:07;97724.66;;;18.59;66.96
3260;BME280;68938;48.150;14.004;2023-06-10T03:56:35;97728.22;;;18.58;66.86
3260;BME280;68938;48.150;14.004;2023-06-10T03:59:02;97727.47;;;18.56;66.99
3260;BME280;68938;48.150;14.004;2023-06-10T04:01:29;97726.56;;;18.57;67.36
3260;BME280;68938;48.150;14.004;2023-06-10T04:03:55;97730.06;;;18.56;66.65
3260;BME280;68938;48.150;14.004;2023-06-10T04:06:22;97724.03;;;18.56;67.23
3260;BME280;68938;48.150;14.004;2023-06-10T04:08:49;97733.72;;;18.54;66.88
3260;BME280;68938;48.150;14.004;2023-06-10T04:11:16;97731.13;;;18.54;67.51
3260;BME280;68938;48.150;14.004;2023-06-10T04:13:43;97733.59;;;18.55;67.76
3260;BME280;68938;48.150;14.004;2023-06-10T04:16:10;97732.66;;;18.56;67.60
3260;BME280;68938;48.150;14.004;2023-06-10T04:18:37;97729.25;;;18.56;67.25
3260;BME280;68938;48.150;14.004;2023-06-10T04:21:03;97738.59;;;18.58;67.73
3260;BME280;68938;48.150;14.004;2023-06-10T04:23:30;97735.16;;;18.58;67.75
3260;BME280;68938;48.150;14.004;2023-06-10T04:25:57;97737.84;;;18.56;67.68
3260;BME280;68938;48.150;14.004;2023-06-10T04:28:24;97746.59;;;18.55;67.84
3260;BME280;68938;48.150;14.004;2023-06-10T04:30:51;97728.13;;;18.47;67.93
3260;BME280;68938;48.150;14.004;2023-06-10T04:33:18;97735.16;;;18.58;67.88
3260;BME280;68938;48.150;14.004;2023-06-10T04:35:45;97726.75;;;18.54;67.75
3260;BME280;68938;48.150;14.004;2023-06-10T04:38:12;97735.91;;;18.60;68.30
3260;BME280;68938;48.150;14.004;2023-06-10T04:40:39;97739.22;;;18.62;68.07
3260;BME280;68938;48.150;14.004;2023-06-10T04:43:06;97733.06;;;18.63;68.30
3260;BME280;68938;48.150;14.004;2023-06-10T04:45:33;97742.34;;;18.67;67.96
3260;BME280;68938;48.150;14.004;2023-06-10T04:47:59;97742.97;;;18.70;67.90
3260;BME280;68938;48.150;14.004;2023-06-10T04:50:26;97745.38;;;18.74;67.78
3260;BME280;68938;48.150;14.004;2023-06-10T04:52:53;97746.22;;;18.74;68.11
3260;BME280;68938;48.150;14.004;2023-06-10T04:55:21;97752.03;;;18.78;68.67
3260;BME280;68938;48.150;14.004;2023-06-10T04:57:48;97744.84;;;18.81;68.54
3260;BME280;68938;48.150;14.004;2023-06-10T05:00:18;97741.09;;;18.85;68.40
3260;BME280;68938;48.150;14.004;2023-06-10T05:02:45;97744.28;;;18.89;68.39
3260;BME280;68938;48.150;14.004;2023-06-10T05:05:12;97738.06;;;18.91;69.22
3260;BME280;68938;48.150;14.004;2023-06-10T05:07:39;97741.16;;;18.97;68.81
3260;BME280;68938;48.150;14.004;2023-06-10T05:10:07;97741.75;;;19.00;69.36
3260;BME280;68938;48.150;14.004;2023-06-10T05:12:34;97741.06;;;18.98;68.80
3260;BME280;68938;48.150;14.004;2023-06-10T05:15:01;97741.69;;;19.02;68.70
3260;BME280;68938;48.150;14.004;2023-06-10T05:17:28;97733.53;;;19.06;68.63
3260;BME280;68938;48.150;14.004;2023-06-10T05:19:55;97737.69;;;19.09;68.77
3260;BME280;68938;48.150;14.004;2023-06-10T05:22:21;97743.38;;;19.14;68.69
3260;BME280;68938;48.150;14.004;2023-06-10T05:24:48;97738.78;;;19.17;68.52
3260;BME280;68938;48.150;14.004;2023-06-10T05:27:16;97728.19;;;19.21;69.07
3260;BME280;68938;48.150;14.004;2023-06-10T05:29:43;97731.25;;;19.38;69.83
3260;BME280;68938;48.150;14.004;2023-06-10T05:32:10;97730.00;;;19.55;69.83
3260;BME280;68938;48.150;14.004;2023-06-10T05:34:38;97734.75;;;19.61;68.82
3260;BME280;68938;48.150;14.004;2023-06-10T05:37:05;97730.47;;;19.73;68.13
3260;BME280;68938;48.150;14.004;2023-06-10T05:39:32;97730.25;;;19.76;67.83
3260;BME280;68938;48.150;14.004;2023-06-10T05:41:59;97736.31;;;19.88;68.49
3260;BME280;68938;48.150;14.004;2023-06-10T05:44:26;97739.16;;;19.96;67.95
3260;BME280;68938;48.150;14.004;2023-06-10T05:46:53;97744.53;;;20.06;68.00
3260;BME280;68938;48.150;14.004;2023-06-10T05:49:20;97753.44;;;20.15;67.37
3260;BME280;68938;48.150;14.004;2023-06-10T05:51:46;97741.47;;;20.23;67.61
3260;BME280;68938;48.150;14.004;2023-06-10T05:54:13;97732.84;;;20.34;67.33
3260;BME280;68938;48.150;14.004;2023-06-10T05:56:40;97738.69;;;20.49;67.19
3260;BME280;68938;48.150;14.004;2023-06-10T05:59:07;97731.38;;;20.65;66.67
3260;BME280;68938;48.150;14.004;2023-06-10T06:01:34;97730.16;;;20.80;67.06
3260;BME280;68938;48.150;14.004;2023-06-10T06:04:01;97721.63;;;20.90;66.37
3260;BME280;68938;48.150;14.004;2023-06-10T06:06:28;97729.91;;;21.06;65.36
3260;BME280;68938;48.150;14.004;2023-06-10T06:08:55;97727.63;;;21.13;65.16
3260;BME280;68938;48.150;14.004;2023-06-10T06:11:22;97730.69;;;21.18;64.92
3260;BME280;68938;48.150;14.004;2023-06-10T06:13:49;97733.16;;;21.19;64.42
3260;BME280;68938;48.150;14.004;2023-06-10T06:16:19;97740.50;;;21.25;64.95
3260;BME280;68938;48.150;14.004;2023-06-10T06:18:46;97735.63;;;21.32;64.43
3260;BME280;68938;48.150;14.004;2023-06-10T06:21:12;97728.56;;;21.34;64.53
3260;BME280;68938;48.150;14.004;2023-06-10T06:23:39;97727.56;;;21.46;64.83
3260;BME280;68938;48.150;14.004;2023-06-10T06:26:07;97728.72;;;21.53;64.70
3260;BME280;68938;48.150;14.004;2023-06-10T06:28:35;97729.25;;;21.68;64.67
3260;BME280;68938;48.150;14.004;2023-06-10T06:31:02;97716.06;;;21.70;63.99
3260;BME280;68938;48.150;14.004;2023-06-10T06:33:29;97731.75;;;21.91;63.42
3260;BME280;68938;48.150;14.004;2023-06-10T06:35:56;97723.31;;;21.98;63.50
3260;BME280;68938;48.150;14.004;2023-06-10T06:38:22;97737.75;;;22.03;62.63
3260;BME280;68938;48.150;14.004;2023-06-10T06:40:49;97736.41;;;22.08;63.05
3260;BME280;68938;48.150;14.004;2023-06-10T06:43:16;97730.34;;;22.19;62.42
3260;BME280;68938;48.150;14.004;2023-06-10T06:45:43;97728.47;;;22.31;62.08
3260;BME280;68938;48.150;14.004;2023-06-10T06:48:11;97727.84;;;22.48;62.27
3260;BME280;68938;48.150;14.004;2023-06-10T06:50:39;97731.91;;;22.62;61.37
3260;BME280;68938;48.150;14.004;2023-06-10T06:53:06;97730.28;;;22.70;61.24
3260;BME280;68938;48.150;14.004;2023-06-10T06:55:32;97728.41;;;22.82;61.64
3260;BME280;68938;48.150;14.004;2023-06-10T06:57:59;97735.63;;;23.00;60.90
3260;BME280;68938;48.150;14.004;2023-06-10T07:00:26;97733.88;;;23.10;60.38
3260;BME280;68938;48.150;14.004;2023-06-10T07:02:53;97733.47;;;23.24;59.47
3260;BME280;68938;48.150;14.004;2023-06-10T07:05:20;97722.66;;;23.38;59.29
3260;BME280;68938;48.150;14.004;2023-06-10T07:07:47;97739.97;;;23.59;59.37
3260;BME280;68938;48.150;14.004;2023-06-10T07:10:14;97734.78;;;23.69;57.98
3260;BME280;68938;48.150;14.004;2023-06-10T07:12:41;97734.63;;;23.89;58.01
3260;BME280;68938;48.150;14.004;2023-06-10T07:15:08;97730.22;;;24.00;56.91
3260;BME280;68938;48.150;14.004;2023-06-10T07:17:36;97735.31;;;24.11;56.47
3260;BME280;68938;48.150;14.004;2023-06-10T07:20:03;97727.56;;;24.09;56.83
3260;BME280;68938;48.150;14.004;2023-06-10T07:22:30;97733.09;;;24.06;57.68
3260;BME280;68938;48.150;14.004;2023-06-10T07:24:58;97736.06;;;24.50;57.06
3260;BME280;68938;48.150;14.004;2023-06-10T07:27:25;97735.03;;;24.61;55.10
3260;BME280;68938;48.150;14.004;2023-06-10T07:29:51;97738.00;;;24.86;54.57
3260;BME280;68938;48.150;14.004;2023-06-10T07:32:19;97729.09;;;24.96;53.84
3260;BME280;68938;48.150;14.004;2023-06-10T07:34:46;97740.78;;;25.12;53.71
3260;BME280;68938;48.150;14.004;2023-06-10T07:37:13;97729.19;;;25.04;53.31
3260;BME280;68938;48.150;14.004;2023-06-10T07:39:40;97725.78;;;24.94;52.92
3260;BME280;68938;48.150;14.004;2023-06-10T07:42:07;97729.75;;;24.98;52.73
3260;BME280;68938;48.150;14.004;2023-06-10T07:44:34;97739.94;;;25.11;53.90
3260;BME280;68938;48.150;14.004;2023-06-10T07:47:01;97740.13;;;25.27;53.38
3260;BME280;68938;48.150;14.004;2023-06-10T07:49:28;97739.38;;;25.35;52.55
3260;BME280;68938;48.150;14.004;2023-06-10T07:51:55;97744.03;;;25.41;52.98
3260;BME280;68938;48.150;14.004;2023-06-10T07:54:21;97744.19;;;25.40;52.84
3260;BME280;68938;48.150;14.004;2023-06-10T07:56:48;97743.88;;;25.43;52.98
3260;BME280;68938;48.150;14.004;2023-06-10T07:59:16;97746.22;;;25.64;53.56
3260;BME280;68938;48.150;14.004;2023-06-10T08:01:43;97733.75;;;25.66;52.04
3260;BME280;68938;48.150;14.004;2023-06-10T08:04:09;97737.81;;;25.96;52.13
3260;BME280;68938;48.150;14.004;2023-06-10T08:06:37;97747.25;;;26.07;52.05
3260;BME280;68938;48.150;14.004;2023-06-10T08:09:04;97743.59;;;25.99;51.53
3260;BME280;68938;48.150;14.004;2023-06-10T08:11:31;97742.78;;;26.25;51.14
3260;BME280;68938;48.150;14.004;2023-06-10T08:13:58;97753.00;;;26.02;50.86
3260;BME280;68938;48.150;14.004;2023-06-10T08:16:24;97749.94;;;25.89;50.30
3260;BME280;68938;48.150;14.004;2023-06-10T08:18:51;97752.31;;;26.00;50.93
3260;BME280;68938;48.150;14.004;2023-06-10T08:21:21;97739.59;;;26.39;50.54
3260;BME280;68938;48.150;14.004;2023-06-10T08:23:52;97748.28;;;26.58;49.53
3260;BME280;68938;48.150;14.004;2023-06-10T08:26:20;97739.66;;;26.74;50.25
3260;BME280;68938;48.150;14.004;2023-06-10T08:28:47;97747.78;;;26.62;49.77
3260;BME280;68938;48.150;14.004;2023-06-10T08:31:14;97742.28;;;26.74;49.91
3260;BME280;68938;48.150;14.004;2023-06-10T08:33:42;97739.66;;;26.74;48.33
3260;BME280;68938;48.150;14.004;2023-06-10T08:36:09;97747.13;;;26.94;48.27
3260;BME280;68938;48.150;14.004;2023-06-10T08:38:36;97742.38;;;27.06;47.76
3260;BME280;68938;48.150;14.004;2023-06-10T08:41:04;97747.25;;;27.19;47.21
3260;BME280;68938;48.150;14.004;2023-06-10T08:44:12;97740.78;;;27.13;46.80
3260;BME280;68938;48.150;14.004;2023-06-10T08:46:45;97746.06;;;26.79;46.89
3260;BME280;68938;48.150;14.004;2023-06-10T08:49:18;97751.81;;;26.75;47.12
3260;BME280;68938;48.150;14.004;2023-06-10T08:51:48;97748.69;;;26.79;47.75
3260;BME280;68938;48.150;14.004;2023-06-10T08:54:27;97754.72;;;26.37;48.17
3260;BME280;68938;48.150;14.004;2023-06-10T08:57:02;97754.66;;;26.55;48.27
3260;BME280;68938;48.150;14.004;2023-06-10T08:59:30;97744.81;;;26.57;47.96
3260;BME280;68938;48.150;14.004;2023-06-10T09:01:58;97750.34;;;26.80;48.87
3260;BME280;68938;48.150;14.004;2023-06-10T09:04:27;97745.53;;;27.10;48.42
3260;BME280;68938;48.150;14.004;2023-06-10T09:06:56;97748.47;;;27.07;47.37
3260;BME280;68938;48.150;14.004;2023-06-10T09:09:25;97742.97;;;27.34;46.92
3260;BME280;68938;48.150;14.004;2023-06-10T09:11:54;97741.38;;;27.58;47.11
3260;BME280;68938;48.150;14.004;2023-06-10T09:14:21;97740.78;;;27.80;47.02
3260;BME280;68938;48.150;14.004;2023-06-10T09:16:48;97734.31;;;28.16;45.54
3260;BME280;68938;48.150;14.004;2023-06-10T09:19:16;97739.44;;;28.09;44.39
3260;BME280;68938;48.150;14.004;2023-06-10T09:21:43;97745.06;;;28.14;44.13
3260;BME280;68938;48.150;14.004;2023-06-10T09:24:10;97730.81;;;28.48;44.27
3260;BME280;68938;48.150;14.004;2023-06-10T09:26:37;97729.66;;;28.50;44.12
3260;BME280;68938;48.150;14.004;2023-06-10T09:29:05;97728.53;;;28.45;44.78
3260;BME280;68938;48.150;14.004;2023-06-10T09:31:37;97729.50;;;28.52;43.25
3260;BME280;68938;48.150;14.004;2023-06-10T09:34:10;97730.00;;;28.47;43.20
3260;BME280;68938;48.150;14.004;2023-06-10T09:36:39;97723.06;;;28.38;42.96
3260;BME280;68938;48.150;14.004;2023-06-10T09:39:18;97732.91;;;28.69;42.80
3260;BME280;68938;48.150;14.004;2023-06-10T09:41:45;97729.66;;;28.50;42.85
3260;BME280;68938;48.150;14.004;2023-06-10T09:44:18;97733.78;;;28.53;43.25
3260;BME280;68938;48.150;14.004;2023-06-10T09:46:48;97721.09;;;28.40;42.67
3260;BME280;68938;48.150;14.004;2023-06-10T09:49:19;97732.59;;;28.64;42.62
3260;BME280;68938;48.150;14.004;2023-06-10T09:51:50;97725.44;;;28.80;41.42
3260;BME280;68938;48.150;14.004;2023-06-10T09:54:22;97735.19;;;28.80;41.63
3260;BME280;68938;48.150;14.004;2023-06-10T09:56:53;97722.03;;;28.64;42.08
3260;BME280;68938;48.150;14.004;2023-06-10T09:59:29;97723.00;;;28.71;43.71
3260;BME280;68938;48.150;14.004;2023-06-10T10:01:57;97724.50;;;28.65;42.62
3260;BME280;68938;48.150;14.004;2023-06-10T10:04:26;97731.84;;;28.39;42.01
3260;BME280;68938;48.150;14.004;2023-06-10T10:06:53;97727.31;;;28.64;42.00
3260;BME280;68938;48.150;14.004;2023-06-10T10:09:20;97718.03;;;28.76;41.01
3260;BME280;68938;48.150;14.004;2023-06-10T10:11:47;97715.97;;;28.94;40.57
3260;BME280;68938;48.150;14.004;2023-06-10T10:14:16;97714.41;;;29.16;40.71
3260;BME280;68938;48.150;14.004;2023-06-10T10:16:46;97719.16;;;29.21;39.59
3260;BME280;68938;48.150;14.004;2023-06-10T10:19:23;97710.78;;;29.40;39.66
3260;BME280;68938;48.150;14.004;2023-06-10T10:21:59;97713.69;;;29.22;39.73
3260;BME280;68938;48.150;14.004;2023-06-10T10:24:34;97715.56;;;29.14;39.17
3260;BME280;68938;48.150;14.004;2023-06-10T10:27:18;97713.03;;;28.89;40.01
3260;BME280;68938;48.150;14.004;2023-06-10T10:29:54;97706.97;;;29.12;40.04
3260;BME280;68938;48.150;14.004;2023-06-10T10:32:54;97706.50;;;29.08;40.60
3260;BME280;68938;48.150;14.004;2023-06-10T10:35:25;97699.84;;;29.43;39.11
3260;BME280;68938;48.150;14.004;2023-06-10T10:37:53;97701.91;;;29.79;38.18
3260;BME280;68938;48.150;14.004;2023-06-10T10:40:22;97705.84;;;29.60;37.98
3260;BME280;68938;48.150;14.004;2023-06-10T10:42:51;97700.63;;;29.75;38.71
3260;BME280;68938;48.150;14.004;2023-06-10T10:45:21;97697.25;;;29.81;39.14
3260;BME280;68938;48.150;14.004;2023-06-10T10:47:52;97690.44;;;30.02;37.94
3260;BME280;68938;48.150;14.004;2023-06-10T10:50:21;97682.56;;;30.16;37.13
3260;BME280;68938;48.150;14.004;2023-06-10T10:52:58;97689.34;;;30.19;36.97
3260;BME280;68938;48.150;14.004;2023-06-10T10:55:27;97681.09;;;30.14;37.23
3260;BME280;68938;48.150;14.004;2023-06-10T11:00:31;97674.72;;;30.38;37.41
3260;BME280;68938;48.150;14.004;2023-06-10T11:05:40;97679.81;;;29.95;38.45
3260;BME280;68938;48.150;14.004;2023-06-10T11:08:09;97681.19;;;30.06;39.04
3260;BME280;68938;48.150;14.004;2023-06-10T11:10:50;97680.94;;;29.55;37.64
3260;BME280;68938;48.150;14.004;2023-06-10T11:13:22;97682.25;;;29.96;38.60
3260;BME280;68938;48.150;14.004;2023-06-10T11:15:53;97678.38;;;30.22;37.43
3260;BME280;68938;48.150;14.004;2023-06-10T11:18:26;97679.03;;;30.54;36.47
3260;BME280;68938;48.150;14.004;2023-06-10T11:20:58;97678.38;;;30.81;35.36
3260;BME280;68938;48.150;14.004;2023-06-10T11:31:44;97665.84;;;30.90;37.03
3260;BME280;68938;48.150;14.004;2023-06-10T11:34:13;97663.50;;;30.36;35.64
3260;BME280;68938;48.150;14.004;2023-06-10T11:36:42;97666.78;;;30.53;36.83
3260;BME280;68938;48.150;14.004;2023-06-10T11:39:10;97673.00;;;30.45;37.69
3260;BME280;68938;48.150;14.004;2023-06-10T11:41:38;97663.06;;;30.47;37.91
3260;BME280;68938;48.150;14.004;2023-06-10T11:44:11;97661.47;;;30.53;38.13
3260;BME280;68938;48.150;14.004;2023-06-10T11:46:44;97662.94;;;30.55;37.15
3260;BME280;68938;48.150;14.004;2023-06-10T11:49:12;97666.69;;;30.46;38.49
3260;BME280;68938;48.150;14.004;2023-06-10T11:51:40;97668.44;;;30.24;38.89
3260;BME280;68938;48.150;14.004;2023-06-10T11:54:10;97682.31;;;29.50;40.43
3260;BME280;68938;48.150;14.004;2023-06-10T11:56:37;97683.84;;;28.83;40.06
3260;BME280;68938;48.150;14.004;2023-06-10T11:59:06;97691.75;;;28.51;41.32
3260;BME280;68938;48.150;14.004;2023-06-10T12:01:41;97699.03;;;28.25;42.09
3260;BME280;68938;48.150;14.004;2023-06-10T12:04:15;97700.22;;;27.98;42.91
3260;BME280;68938;48.150;14.004;2023-06-10T12:06:53;97695.44;;;27.69;43.68
3260;BME280;68938;48.150;14.004;2023-06-10T12:12:04;97711.69;;;27.15;44.51
3260;BME280;68938;48.150;14.004;2023-06-10T12:17:20;97693.00;;;26.92;42.62
3260;BME280;68938;48.150;14.004;2023-06-10T12:19:50;97696.06;;;26.79;42.02
3260;BME280;68938;48.150;14.004;2023-06-10T12:22:17;97710.53;;;26.83;42.47
3260;BME280;68938;48.150;14.004;2023-06-10T12:24:56;97698.38;;;26.74;42.78
3260;BME280;68938;48.150;14.004;2023-06-10T12:27:24;97709.16;;;26.63;43.15
3260;BME280;68938;48.150;14.004;2023-06-10T12:29:52;97711.13;;;26.61;45.96
3260;BME280;68938;48.150;14.004;2023-06-10T12:32:19;97711.56;;;26.48;46.10
3260;BME280;68938;48.150;14.004;2023-06-10T12:34:46;97710.50;;;26.41;45.77
3260;BME280;68938;48.150;14.004;2023-06-10T12:37:13;97708.78;;;26.32;44.01
3260;BME280;68938;48.150;14.004;2023-06-10T12:39:41;97706.91;;;26.16;44.35
3260;BME280;68938;48.150;14.004;2023-06-10T12:42:12;97706.91;;;26.16;44.38
3260;BME280;68938;48.150;14.004;2023-06-10T12:44:40;97707.06;;;26.14;44.68
3260;BME280;68938;48.150;14.004;2023-06-10T12:47:08;97699.84;;;26.16;44.70
3260;BME280;68938;48.150;14.004;2023-06-10T12:49:36;97700.47;;;26.10;44.49
3260;BME280;68938;48.150;14.004;2023-06-10T12:52:04;97688.31;;;26.09;44.76
3260;BME280;68938;48.150;14.004;2023-06-10T12:54:32;97691.59;;;26.11;45.42
3260;BME280;68938;48.150;14.004;2023-06-10T12:56:59;97693.69;;;26.08;45.81
3260;BME280;68938;48.150;14.004;2023-06-10T12:59:26;97693.91;;;26.14;45.90
3260;BME280;68938;48.150;14.004;2023-06-10T13:01:54;97682.31;;;26.25;45.41
3260;BME280;68938;48.150;14.004;2023-06-10T13:04:22;97684.13;;;26.59;46.09
3260;BME280;68938;48.150;14.004;2023-06-10T13:06:48;97686.09;;;26.99;45.88
3260;BME280;68938;48.150;14.004;2023-06-10T13:09:16;97677.31;;;27.41;45.16
3260;BME280;68938;48.150;14.004;2023-06-10T13:11:43;97679.13;;;27.98;44.04
3260;BME280;68938;48.150;14.004;2023-06-10T13:14:10;97676.41;;;28.47;42.79
3260;BME280;68938;48.150;14.004;2023-06-10T13:16:37;97667.28;;;28.89;41.95
3260;BME280;68938;48.150;14.004;2023-06-10T13:19:05;97675.66;;;29.32;41.62
3260;BME280;68938;48.150;14.004;2023-06-10T13:21:35;97684.72;;;29.60;40.88
3260;BME280;68938;48.150;14.004;2023-06-10T13:24:05;97679.41;;;29.60;41.32
3260;BME280;68938;48.150;14.004;2023-06-10T13:26:32;97680.59;;;29.58;41.22
3260;BME280;68938;48.150;14.004;2023-06-10T13:28:59;97673.78;;;29.40;42.41
3260;BME280;68938;48.150;14.004;2023-06-10T13:31:26;97687.69;;;29.11;43.46
3260;BME280;68938;48.150;14.004;2023-06-10T13:33:53;97681.78;;;29.01;42.90